createdAt,value
2023-02-19T00:00:15.138Z,0.00
2023-02-19T00:01:14.785Z,0.00
2023-02-19T00:02:14.785Z,0.00
2023-02-19T00:03:14.762Z,0.00
2023-02-19T00:04:14.678Z,0.00
2023-02-19T00:05:15.534Z,0.00
2023-02-19T00:06:15.120Z,0.00
2023-02-19T00:07:15.174Z,0.00
2023-02-19T00:08:14.569Z,0.00
2023-02-19T00:09:14.725Z,0.00
2023-02-19T00:10:14.492Z,0.00
2023-02-19T00:11:15.562Z,0.00
2023-02-19T00:12:14.558Z,0.00
2023-02-19T00:13:14.976Z,0.00
2023-02-19T00:14:14.688Z,0.00
2023-02-19T00:15:14.611Z,0.00
2023-02-19T00:16:14.631Z,0.00
2023-02-19T00:17:14.492Z,0.00
2023-02-19T00:18:14.464Z,0.00
2023-02-19T00:19:14.455Z,0.00
2023-02-19T00:20:14.451Z,0.00
2023-02-19T00:21:14.422Z,0.00
2023-02-19T00:22:14.415Z,0.00
2023-02-19T00:23:14.412Z,0.00
2023-02-19T00:24:14.369Z,0.00
2023-02-19T00:25:14.546Z,0.00
2023-02-19T00:26:18.463Z,0.00
2023-02-19T00:27:14.347Z,0.00
2023-02-19T00:28:14.402Z,0.00
2023-02-19T00:29:14.298Z,0.00
2023-02-19T00:30:14.366Z,0.00
2023-02-19T00:31:14.575Z,0.00
2023-02-19T00:32:14.420Z,0.00
2023-02-19T00:33:14.314Z,0.00
2023-02-19T00:34:14.290Z,0.00
2023-02-19T00:35:14.395Z,0.00
2023-02-19T00:36:14.351Z,0.00
2023-02-19T00:37:14.255Z,0.00
2023-02-19T00:38:14.332Z,0.00
2023-02-19T00:39:14.231Z,0.00
2023-02-19T00:40:14.289Z,0.00
2023-02-19T00:41:14.158Z,0.00
2023-02-19T00:42:14.274Z,0.00
2023-02-19T00:43:14.155Z,0.00
2023-02-19T00:44:14.265Z,0.00
2023-02-19T00:45:14.227Z,0.00
2023-02-19T00:46:14.180Z,0.00
2023-02-19T00:47:14.288Z,0.00
2023-02-19T00:48:14.123Z,0.00
2023-02-19T00:49:14.137Z,0.00
2023-02-19T00:50:14.124Z,0.00
2023-02-19T00:51:14.093Z,0.00
2023-02-19T00:52:14.093Z,0.00
2023-02-19T00:53:14.066Z,0.00
2023-02-19T00:54:14.115Z,0.00
2023-02-19T00:55:14.118Z,0.00
2023-02-19T00:56:14.009Z,0.00
2023-02-19T00:57:14.064Z,0.00
2023-02-19T00:58:14.130Z,0.00
2023-02-19T00:59:13.992Z,0.00
2023-02-19T01:00:14.008Z,0.00
2023-02-19T01:01:14.095Z,0.00
2023-02-19T01:02:13.999Z,0.00
2023-02-19T01:03:14.011Z,0.00
2023-02-19T01:04:13.936Z,0.00
2023-02-19T01:05:13.924Z,0.00
2023-02-19T01:06:13.911Z,0.00
2023-02-19T01:07:13.962Z,0.00
2023-02-19T01:08:13.903Z,0.00
2023-02-19T01:09:13.971Z,0.00
2023-02-19T01:10:13.913Z,0.00
2023-02-19T01:11:13.906Z,0.00
2023-02-19T01:12:13.922Z,0.00
2023-02-19T01:13:13.829Z,0.00
2023-02-19T01:14:13.905Z,0.00
2023-02-19T01:15:13.835Z,0.00
2023-02-19T01:16:14.023Z,0.00
2023-02-19T01:17:13.903Z,0.00
2023-02-19T01:18:13.762Z,0.00
2023-02-19T01:19:13.871Z,0.00
2023-02-19T01:20:13.797Z,0.00
2023-02-19T01:21:13.804Z,0.00
2023-02-19T01:22:13.759Z,0.00
2023-02-19T01:23:13.737Z,0.00
2023-02-19T01:24:13.754Z,0.00
2023-02-19T01:25:13.770Z,0.00
2023-02-19T01:26:13.679Z,0.00
2023-02-19T01:27:13.690Z,0.00
2023-02-19T01:28:13.694Z,0.00
2023-02-19T01:29:13.773Z,0.00
2023-02-19T01:30:13.662Z,0.00
2023-02-19T01:31:14.190Z,0.00
2023-02-19T01:32:13.661Z,0.00
2023-02-19T01:33:13.597Z,0.00
2023-02-19T01:34:13.612Z,0.00
2023-02-19T01:35:13.606Z,0.00
2023-02-19T01:36:13.654Z,0.00
2023-02-19T01:37:13.712Z,0.00
2023-02-19T01:38:13.618Z,0.00
2023-02-19T01:39:13.556Z,0.00
2023-02-19T01:40:13.535Z,0.00
2023-02-19T01:41:13.661Z,0.00
2023-02-19T01:42:13.559Z,0.00
2023-02-19T01:43:13.564Z,0.00
2023-02-19T01:44:13.604Z,0.00
2023-02-19T01:45:13.498Z,0.00
2023-02-19T01:46:13.496Z,0.00
2023-02-19T01:47:13.509Z,0.00
2023-02-19T01:48:13.578Z,0.00
2023-02-19T01:49:13.418Z,0.00
2023-02-19T01:50:13.813Z,0.00
2023-02-19T01:51:13.410Z,0.00
2023-02-19T01:52:13.448Z,0.00
2023-02-19T01:53:13.472Z,0.00
2023-02-19T01:54:13.476Z,0.00
2023-02-19T01:55:13.385Z,0.00
2023-02-19T01:56:13.376Z,0.00
2023-02-19T01:57:13.356Z,0.00
2023-02-19T01:58:13.456Z,0.00
2023-02-19T01:59:13.485Z,0.00
2023-02-19T02:00:13.366Z,0.00
2023-02-19T02:01:13.630Z,0.00
2023-02-19T02:02:13.315Z,0.00
2023-02-19T02:03:13.324Z,0.00
2023-02-19T02:04:13.448Z,0.00
2023-02-19T02:05:13.264Z,0.00
2023-02-19T02:06:13.213Z,0.00
2023-02-19T02:07:13.317Z,0.00
2023-02-19T02:08:13.300Z,0.00
2023-02-19T02:09:14.340Z,0.00
2023-02-19T02:10:13.329Z,0.00
2023-02-19T02:11:13.391Z,0.00
2023-02-19T02:12:13.213Z,0.00
2023-02-19T02:13:13.183Z,0.00
2023-02-19T02:14:13.140Z,0.00
2023-02-19T02:15:13.152Z,0.00
2023-02-19T02:16:13.179Z,0.00
2023-02-19T02:17:13.113Z,0.00
2023-02-19T02:18:13.211Z,0.00
2023-02-19T02:19:13.111Z,0.00
2023-02-19T02:20:13.151Z,0.00
2023-02-19T02:21:13.085Z,0.00
2023-02-19T02:22:13.042Z,0.00
2023-02-19T02:23:13.090Z,0.00
2023-02-19T02:24:13.056Z,0.00
2023-02-19T02:25:13.155Z,0.00
2023-02-19T02:26:13.052Z,0.00
2023-02-19T02:27:13.085Z,0.00
2023-02-19T02:28:13.077Z,0.00
2023-02-19T02:29:12.985Z,0.00
2023-02-19T02:30:13.063Z,0.00
2023-02-19T02:31:13.366Z,0.00
2023-02-19T02:32:13.799Z,0.00
2023-02-19T02:33:13.062Z,0.00
2023-02-19T02:34:13.006Z,0.00
2023-02-19T02:35:12.959Z,0.00
2023-02-19T02:36:12.877Z,0.00
2023-02-19T02:37:12.960Z,0.00
2023-02-19T02:38:12.920Z,0.00
2023-02-19T02:39:12.945Z,0.00
2023-02-19T02:40:12.964Z,0.00
2023-02-19T02:41:13.129Z,0.00
2023-02-19T02:42:12.856Z,0.00
2023-02-19T02:43:12.799Z,0.00
2023-02-19T02:44:12.880Z,0.00
2023-02-19T02:45:12.856Z,0.00
2023-02-19T02:46:13.172Z,0.00
2023-02-19T02:47:12.904Z,0.00
2023-02-19T02:48:12.781Z,0.00
2023-02-19T02:49:12.753Z,0.00
2023-02-19T02:50:12.852Z,0.00
2023-02-19T02:51:13.024Z,0.00
2023-02-19T02:52:12.767Z,0.00
2023-02-19T02:53:12.731Z,0.00
2023-02-19T02:54:13.684Z,0.00
2023-02-19T02:55:12.749Z,0.00
2023-02-19T02:56:12.803Z,0.00
2023-02-19T02:57:12.692Z,0.00
2023-02-19T02:58:12.786Z,0.00
2023-02-19T02:59:12.675Z,0.00
2023-02-19T03:00:12.688Z,0.00
2023-02-19T03:01:13.064Z,0.00
2023-02-19T03:02:12.800Z,0.00
2023-02-19T03:03:12.767Z,0.00
2023-02-19T03:04:12.655Z,0.00
2023-02-19T03:05:12.656Z,0.00
2023-02-19T03:06:12.606Z,0.00
2023-02-19T03:07:12.587Z,0.00
2023-02-19T03:08:12.623Z,0.00
2023-02-19T03:09:12.561Z,0.00
2023-02-19T03:10:12.602Z,0.00
2023-02-19T03:11:12.570Z,0.00
2023-02-19T03:12:12.504Z,0.00
2023-02-19T03:13:12.497Z,0.00
2023-02-19T03:14:12.520Z,0.00
2023-02-19T03:15:12.528Z,0.00
2023-02-19T03:16:12.556Z,0.00
2023-02-19T03:17:12.534Z,0.00
2023-02-19T03:18:12.457Z,0.00
2023-02-19T03:19:12.473Z,0.00
2023-02-19T03:20:12.456Z,0.00
2023-02-19T03:21:12.692Z,0.00
2023-02-19T03:22:12.478Z,0.00
2023-02-19T03:23:12.457Z,0.00
2023-02-19T03:24:12.368Z,0.00
2023-02-19T03:25:12.378Z,0.00
2023-02-19T03:26:12.457Z,0.00
2023-02-19T03:27:12.444Z,0.00
2023-02-19T03:28:12.417Z,0.00
2023-02-19T03:29:12.404Z,0.00
2023-02-19T03:30:12.329Z,0.00
2023-02-19T03:31:12.892Z,0.00
2023-02-19T03:32:12.362Z,0.00
2023-02-19T03:33:12.331Z,0.00
2023-02-19T03:34:12.266Z,0.00
2023-02-19T03:35:12.316Z,0.00
2023-02-19T03:36:12.439Z,0.00
2023-02-19T03:37:12.348Z,0.00
2023-02-19T03:38:12.265Z,0.00
2023-02-19T03:39:12.292Z,0.00
2023-02-19T03:40:12.250Z,0.00
2023-02-19T03:41:12.379Z,0.00
2023-02-19T03:42:12.299Z,0.00
2023-02-19T03:43:12.221Z,0.00
2023-02-19T03:44:12.197Z,0.00
2023-02-19T03:45:12.209Z,0.00
2023-02-19T03:46:12.152Z,0.00
2023-02-19T03:47:12.194Z,0.00
2023-02-19T03:48:12.157Z,0.00
2023-02-19T03:49:12.205Z,0.00
2023-02-19T03:50:12.132Z,0.00
2023-02-19T03:51:12.399Z,0.00
2023-02-19T03:52:12.091Z,0.00
2023-02-19T03:53:12.136Z,0.00
2023-02-19T03:54:12.068Z,0.00
2023-02-19T03:55:12.079Z,0.00
2023-02-19T03:56:12.109Z,0.00
2023-02-19T03:57:12.114Z,0.00
2023-02-19T03:58:12.073Z,0.00
2023-02-19T03:59:12.072Z,0.00
2023-02-19T04:00:12.007Z,0.00
2023-02-19T04:01:12.397Z,0.00
2023-02-19T04:02:12.075Z,0.00
2023-02-19T04:03:12.107Z,0.00
2023-02-19T04:04:12.241Z,0.00
2023-02-19T04:05:14.069Z,0.00
2023-02-19T04:06:11.971Z,0.00
2023-02-19T04:07:11.976Z,0.00
2023-02-19T04:08:11.967Z,0.00
2023-02-19T04:09:11.969Z,0.00
2023-02-19T04:10:11.906Z,0.00
2023-02-19T04:11:12.136Z,0.00
2023-02-19T04:12:12.017Z,0.00
2023-02-19T04:13:11.886Z,0.00
2023-02-19T04:14:11.900Z,0.00
2023-02-19T04:15:11.859Z,0.00
2023-02-19T04:16:11.977Z,0.00
2023-02-19T04:17:11.887Z,0.00
2023-02-19T04:18:11.838Z,0.00
2023-02-19T04:19:11.794Z,0.00
2023-02-19T04:20:11.793Z,0.00
2023-02-19T04:21:12.230Z,0.00
2023-02-19T04:22:11.766Z,0.00
2023-02-19T04:23:11.822Z,0.00
2023-02-19T04:24:11.724Z,0.00
2023-02-19T04:25:11.768Z,0.00
2023-02-19T04:26:11.703Z,0.00
2023-02-19T04:27:11.895Z,0.00
2023-02-19T04:28:11.695Z,0.00
2023-02-19T04:29:11.721Z,0.00
2023-02-19T04:30:11.723Z,0.00
2023-02-19T04:31:12.096Z,0.00
2023-02-19T04:32:11.665Z,0.00
2023-02-19T04:33:11.635Z,0.00
2023-02-19T04:34:11.682Z,0.00
2023-02-19T04:35:11.679Z,0.00
2023-02-19T04:36:11.635Z,0.00
2023-02-19T04:37:11.721Z,0.00
2023-02-19T04:38:11.603Z,0.00
2023-02-19T04:39:11.668Z,0.00
2023-02-19T04:40:11.620Z,0.00
2023-02-19T04:41:11.854Z,0.00
2023-02-19T04:42:11.524Z,0.00
2023-02-19T04:43:11.566Z,0.00
2023-02-19T04:44:11.481Z,0.00
2023-02-19T04:45:11.596Z,0.00
2023-02-19T04:46:11.509Z,0.00
2023-02-19T04:47:11.597Z,0.00
2023-02-19T04:48:11.467Z,0.00
2023-02-19T04:49:11.466Z,0.00
2023-02-19T04:50:11.477Z,0.00
2023-02-19T04:51:11.834Z,0.00
2023-02-19T04:52:11.391Z,0.00
2023-02-19T04:53:11.418Z,0.00
2023-02-19T04:54:11.405Z,0.00
2023-02-19T04:55:11.552Z,0.00
2023-02-19T04:56:11.477Z,0.00
2023-02-19T04:57:11.575Z,0.00
2023-02-19T04:58:12.245Z,0.00
2023-02-19T04:59:11.477Z,0.00
2023-02-19T05:00:11.563Z,0.00
2023-02-19T05:01:11.618Z,0.00
2023-02-19T05:02:11.356Z,0.00
2023-02-19T05:03:11.354Z,0.00
2023-02-19T05:04:11.415Z,0.00
2023-02-19T05:05:11.330Z,0.00
2023-02-19T05:06:11.304Z,0.00
2023-02-19T05:07:11.335Z,0.00
2023-02-19T05:08:11.244Z,0.00
2023-02-19T05:09:11.217Z,0.00
2023-02-19T05:10:11.230Z,0.00
2023-02-19T05:11:11.653Z,0.00
2023-02-19T05:12:11.308Z,0.00
2023-02-19T05:13:11.294Z,0.00
2023-02-19T05:14:11.258Z,0.00
2023-02-19T05:15:11.256Z,0.00
2023-02-19T05:16:11.292Z,0.00
2023-02-19T05:17:11.510Z,0.00
2023-02-19T05:18:11.300Z,0.00
2023-02-19T05:19:11.183Z,0.00
2023-02-19T05:20:11.216Z,0.00
2023-02-19T05:21:11.564Z,0.00
2023-02-19T05:22:11.085Z,0.00
2023-02-19T05:23:11.099Z,0.00
2023-02-19T05:24:11.384Z,0.00
2023-02-19T05:25:11.118Z,0.00
2023-02-19T05:26:11.132Z,0.00
2023-02-19T05:27:11.238Z,0.00
2023-02-19T05:28:11.180Z,0.00
2023-02-19T05:29:11.036Z,0.00
2023-02-19T05:30:11.043Z,0.00
2023-02-19T05:31:11.370Z,0.00
2023-02-19T05:32:10.974Z,0.00
2023-02-19T05:33:10.976Z,0.00
2023-02-19T05:34:10.959Z,0.00
2023-02-19T05:35:10.938Z,0.00
2023-02-19T05:36:11.170Z,0.00
2023-02-19T05:37:10.972Z,0.00
2023-02-19T05:38:10.910Z,0.00
2023-02-19T05:39:10.884Z,0.00
2023-02-19T05:40:10.877Z,0.00
2023-02-19T05:41:11.242Z,0.00
2023-02-19T05:42:10.842Z,0.00
2023-02-19T05:43:10.833Z,0.00
2023-02-19T05:44:10.826Z,0.00
2023-02-19T05:45:10.802Z,0.00
2023-02-19T05:46:10.845Z,0.00
2023-02-19T05:47:10.831Z,0.00
2023-02-19T05:48:10.806Z,0.00
2023-02-19T05:49:10.787Z,0.00
2023-02-19T05:50:10.745Z,0.00
2023-02-19T05:51:11.034Z,0.00
2023-02-19T05:52:10.764Z,0.00
2023-02-19T05:53:10.760Z,0.00
2023-02-19T05:54:10.776Z,0.00
2023-02-19T05:55:10.722Z,0.00
2023-02-19T05:56:10.696Z,0.00
2023-02-19T05:57:10.671Z,0.00
2023-02-19T05:58:10.668Z,0.00
2023-02-19T05:59:10.740Z,0.00
2023-02-19T06:00:10.632Z,1.00
2023-02-19T06:01:10.936Z,1.00
2023-02-19T06:02:10.610Z,1.00
2023-02-19T06:03:10.546Z,1.00
2023-02-19T06:04:10.713Z,2.00
2023-02-19T06:05:10.528Z,2.00
2023-02-19T06:06:10.567Z,2.00
2023-02-19T06:07:10.544Z,3.00
2023-02-19T06:08:10.521Z,2.00
2023-02-19T06:09:10.502Z,1.00
2023-02-19T06:10:10.453Z,2.00
2023-02-19T06:11:10.843Z,3.00
2023-02-19T06:12:10.515Z,3.00
2023-02-19T06:13:10.471Z,2.00
2023-02-19T06:14:10.434Z,5.00
2023-02-19T06:15:10.536Z,10.00
2023-02-19T06:16:10.419Z,7.00
2023-02-19T06:17:10.421Z,13.00
2023-02-19T06:18:10.422Z,21.00
2023-02-19T06:19:10.374Z,31.00
2023-02-19T06:20:10.366Z,29.00
2023-02-19T06:21:10.697Z,34.00
2023-02-19T06:22:10.332Z,41.00
2023-02-19T06:23:10.336Z,49.00
2023-02-19T06:24:10.345Z,55.00
2023-02-19T06:25:10.334Z,68.00
2023-02-19T06:26:10.313Z,74.00
2023-02-19T06:27:10.289Z,84.00
2023-02-19T06:28:10.362Z,73.00
2023-02-19T06:29:10.279Z,64.00
2023-02-19T06:30:10.291Z,51.00
2023-02-19T06:31:10.808Z,53.00
2023-02-19T06:32:10.517Z,25.00
2023-02-19T06:33:10.225Z,60.00
2023-02-19T06:34:10.306Z,62.00
2023-02-19T06:35:10.213Z,90.00
2023-02-19T06:36:10.210Z,94.00
2023-02-19T06:37:10.243Z,108.00
2023-02-19T06:38:10.169Z,130.00
2023-02-19T06:39:10.177Z,119.00
2023-02-19T06:40:10.140Z,152.00
2023-02-19T06:41:10.524Z,146.00
2023-02-19T06:42:10.174Z,195.00
2023-02-19T06:43:10.112Z,228.00
2023-02-19T06:44:10.124Z,234.00
2023-02-19T06:45:10.143Z,257.00
2023-02-19T06:46:10.163Z,226.00
2023-02-19T06:47:10.077Z,181.00
2023-02-19T06:48:10.293Z,149.00
2023-02-19T06:49:10.106Z,170.00
2023-02-19T06:50:10.540Z,225.00
2023-02-19T06:51:10.519Z,250.00
2023-02-19T06:52:10.014Z,255.00
2023-02-19T06:53:10.036Z,215.00
2023-02-19T06:54:10.072Z,164.00
2023-02-19T06:55:10.050Z,181.00
2023-02-19T06:56:10.142Z,241.00
2023-02-19T06:57:10.071Z,175.00
2023-02-19T06:58:10.002Z,150.00
2023-02-19T06:59:09.943Z,240.00
2023-02-19T07:00:09.984Z,223.00
2023-02-19T07:01:10.459Z,197.00
2023-02-19T07:02:09.897Z,110.00
2023-02-19T07:03:09.912Z,194.00
2023-02-19T07:04:09.944Z,148.00
2023-02-19T07:05:09.900Z,188.00
2023-02-19T07:06:09.885Z,161.00
2023-02-19T07:07:09.866Z,127.00
2023-02-19T07:08:09.836Z,116.00
2023-02-19T07:09:09.841Z,194.00
2023-02-19T07:10:09.872Z,286.00
2023-02-19T07:11:10.253Z,657.00
2023-02-19T07:12:09.819Z,733.00
2023-02-19T07:13:09.813Z,488.00
2023-02-19T07:14:09.829Z,547.00
2023-02-19T07:15:09.789Z,499.00
2023-02-19T07:16:09.885Z,316.00
2023-02-19T07:17:09.756Z,493.00
2023-02-19T07:18:09.746Z,447.00
2023-02-19T07:19:09.736Z,818.00
2023-02-19T07:20:09.700Z,751.00
2023-02-19T07:21:10.179Z,565.00
2023-02-19T07:22:09.692Z,337.00
2023-02-19T07:23:09.689Z,624.00
2023-02-19T07:24:09.695Z,833.00
2023-02-19T07:25:09.694Z,677.00
2023-02-19T07:26:09.672Z,598.00
2023-02-19T07:27:09.650Z,431.00
2023-02-19T07:28:09.635Z,592.00
2023-02-19T07:29:09.606Z,767.00
2023-02-19T07:30:09.693Z,556.00
2023-02-19T07:31:09.975Z,442.00
2023-02-19T07:32:09.652Z,703.00
2023-02-19T07:33:10.622Z,602.00
2023-02-19T07:34:09.782Z,853.00
2023-02-19T07:35:09.525Z,1217.00
2023-02-19T07:36:09.672Z,1396.00
2023-02-19T07:37:09.511Z,1522.00
2023-02-19T07:38:09.515Z,1690.00
2023-02-19T07:39:10.290Z,1431.00
2023-02-19T07:40:09.587Z,912.00
2023-02-19T07:41:09.928Z,756.00
2023-02-19T07:42:09.717Z,535.00
2023-02-19T07:43:09.504Z,591.00
2023-02-19T07:44:09.456Z,738.00
2023-02-19T07:45:09.631Z,705.00
2023-02-19T07:46:09.474Z,989.00
2023-02-19T07:47:09.581Z,842.00
2023-02-19T07:48:09.404Z,807.00
2023-02-19T07:49:09.445Z,948.00
2023-02-19T07:50:09.413Z,969.00
2023-02-19T07:51:09.788Z,1055.00
2023-02-19T07:52:09.375Z,915.00
2023-02-19T07:53:09.368Z,785.00
2023-02-19T07:54:09.414Z,974.00
2023-02-19T07:55:09.396Z,1899.00
2023-02-19T07:56:09.335Z,1835.00
2023-02-19T07:57:09.333Z,1593.00
2023-02-19T07:58:09.311Z,1326.00
2023-02-19T07:59:09.268Z,810.00
2023-02-19T08:00:09.314Z,690.00
2023-02-19T08:01:09.597Z,878.00
2023-02-19T08:02:09.264Z,1107.00
2023-02-19T08:03:09.352Z,1014.00
2023-02-19T08:04:09.277Z,1666.00
2023-02-19T08:05:09.212Z,1961.00
2023-02-19T08:06:09.225Z,2154.00
2023-02-19T08:07:10.224Z,1364.00
2023-02-19T08:08:09.273Z,938.00
2023-02-19T08:09:09.174Z,720.00
2023-02-19T08:10:09.631Z,1456.00
2023-02-19T08:11:09.434Z,1120.00
2023-02-19T08:12:09.322Z,1387.00
2023-02-19T08:13:09.142Z,1523.00
2023-02-19T08:14:09.435Z,1170.00
2023-02-19T08:15:09.111Z,1964.00
2023-02-19T08:16:17.334Z,2549.00
2023-02-19T08:17:09.171Z,3745.00
2023-02-19T08:18:09.254Z,3879.00
2023-02-19T08:19:09.120Z,2541.00
2023-02-19T08:20:09.129Z,1626.00
2023-02-19T08:21:09.414Z,1035.00
2023-02-19T08:22:09.085Z,1234.00
2023-02-19T08:23:09.076Z,1075.00
2023-02-19T08:24:09.002Z,1253.00
2023-02-19T08:25:09.014Z,1087.00
2023-02-19T08:26:08.989Z,902.00
2023-02-19T08:27:08.997Z,846.00
2023-02-19T08:28:08.982Z,950.00
2023-02-19T08:29:08.949Z,411.00
2023-02-19T08:30:09.030Z,1439.00
2023-02-19T08:31:09.360Z,1857.00
2023-02-19T08:32:08.992Z,1660.00
2023-02-19T08:33:08.964Z,1660.00
2023-02-19T08:34:08.918Z,1604.00
2023-02-19T08:35:08.913Z,965.00
2023-02-19T08:36:08.866Z,761.00
2023-02-19T08:37:09.075Z,426.00
2023-02-19T08:38:08.854Z,1262.00
2023-02-19T08:39:08.909Z,2172.00
2023-02-19T08:40:08.866Z,2352.00
2023-02-19T08:41:09.291Z,2281.00
2023-02-19T08:42:08.802Z,3023.00
2023-02-19T08:43:08.826Z,2570.00
2023-02-19T08:44:08.789Z,3514.00
2023-02-19T08:45:08.787Z,4463.00
2023-02-19T08:46:08.847Z,3909.00
2023-02-19T08:47:08.786Z,4549.00
2023-02-19T08:48:08.757Z,4236.00
2023-02-19T08:49:08.760Z,3916.00
2023-02-19T08:50:08.764Z,4137.00
2023-02-19T08:51:09.094Z,3322.00
2023-02-19T08:52:08.753Z,3664.00
2023-02-19T08:53:08.679Z,4009.00
2023-02-19T08:54:08.695Z,3565.00
2023-02-19T08:55:08.729Z,3959.00
2023-02-19T08:56:08.721Z,3857.00
2023-02-19T08:57:08.656Z,3580.00
2023-02-19T08:58:08.706Z,4218.00
2023-02-19T08:59:08.676Z,3882.00
2023-02-19T09:00:08.657Z,4516.00
2023-02-19T09:01:08.909Z,6046.00
2023-02-19T09:02:08.686Z,5344.00
2023-02-19T09:03:08.634Z,5511.00
2023-02-19T09:04:08.620Z,4883.00
2023-02-19T09:05:08.563Z,5669.00
2023-02-19T09:06:08.773Z,3920.00
2023-02-19T09:07:08.665Z,3912.00
2023-02-19T09:08:08.530Z,3720.00
2023-02-19T09:09:08.548Z,3142.00
2023-02-19T09:10:08.526Z,4559.00
2023-02-19T09:11:08.621Z,4814.00
2023-02-19T09:12:08.494Z,3965.00
2023-02-19T09:13:08.496Z,4619.00
2023-02-19T09:14:08.457Z,4531.00
2023-02-19T09:15:08.499Z,5704.00
2023-02-19T09:16:08.586Z,4433.00
2023-02-19T09:17:08.459Z,2711.00
2023-02-19T09:18:08.453Z,7298.00
2023-02-19T09:19:08.414Z,8012.00
2023-02-19T09:20:08.391Z,5387.00
2023-02-19T09:21:08.692Z,8660.00
2023-02-19T09:22:08.401Z,5158.00
2023-02-19T09:23:08.407Z,5200.00
2023-02-19T09:24:08.345Z,4595.00
2023-02-19T09:25:08.351Z,3762.00
2023-02-19T09:26:08.377Z,3530.00
2023-02-19T09:27:08.336Z,5089.00
2023-02-19T09:28:08.377Z,4073.00
2023-02-19T09:29:08.347Z,3281.00
2023-02-19T09:30:08.399Z,2764.00
2023-02-19T09:31:08.575Z,3285.00
2023-02-19T09:32:08.338Z,5191.00
2023-02-19T09:33:08.339Z,3490.00
2023-02-19T09:34:08.337Z,3218.00
2023-02-19T09:35:08.267Z,6402.00
2023-02-19T09:36:08.347Z,5429.00
2023-02-19T09:37:08.230Z,7791.00
2023-02-19T09:38:08.255Z,4118.00
2023-02-19T09:39:08.219Z,6116.00
2023-02-19T09:40:08.269Z,6390.00
2023-02-19T09:41:08.406Z,5539.00
2023-02-19T09:42:08.217Z,3667.00
2023-02-19T09:43:08.288Z,3348.00
2023-02-19T09:44:08.146Z,2451.00
2023-02-19T09:45:08.139Z,2718.00
2023-02-19T09:46:08.233Z,3173.00
2023-02-19T09:47:08.184Z,1971.00
2023-02-19T09:48:08.137Z,1970.00
2023-02-19T09:49:08.109Z,2405.00
2023-02-19T09:50:08.089Z,2163.00
2023-02-19T09:51:08.190Z,2053.00
2023-02-19T09:52:08.079Z,2455.00
2023-02-19T09:53:08.047Z,2267.00
2023-02-19T09:54:08.085Z,2794.00
2023-02-19T09:55:08.110Z,2475.00
2023-02-19T09:56:08.128Z,2114.00
2023-02-19T09:57:08.012Z,3426.00
2023-02-19T09:58:07.990Z,3699.00
2023-02-19T09:59:08.258Z,3190.00
2023-02-19T10:00:10.557Z,4124.00
2023-02-19T10:01:07.963Z,3930.00
2023-02-19T10:02:07.962Z,3108.00
2023-02-19T10:03:08.047Z,2804.00
2023-02-19T10:04:07.951Z,2368.00
2023-02-19T10:05:07.959Z,2770.00
2023-02-19T10:06:11.173Z,2585.00
2023-02-19T10:07:07.886Z,2241.00
2023-02-19T10:08:07.947Z,2167.00
2023-02-19T10:09:07.894Z,2261.00
2023-02-19T10:10:07.905Z,2491.00
2023-02-19T10:11:07.865Z,2954.00
2023-02-19T10:12:10.049Z,3328.00
2023-02-19T10:13:07.876Z,3946.00
2023-02-19T10:14:07.887Z,3970.00
2023-02-19T10:15:07.864Z,2685.00
2023-02-19T10:16:07.862Z,2021.00
2023-02-19T10:17:07.844Z,1977.00
2023-02-19T10:18:10.211Z,1929.00
2023-02-19T10:19:07.777Z,2667.00
2023-02-19T10:20:07.787Z,3951.00
2023-02-19T10:21:07.772Z,4462.00
2023-02-19T10:22:07.755Z,4294.00
2023-02-19T10:23:07.819Z,4246.00
2023-02-19T10:24:07.772Z,3592.00
2023-02-19T10:25:07.740Z,3328.00
2023-02-19T10:26:07.704Z,3270.00
2023-02-19T10:27:07.704Z,3277.00
2023-02-19T10:28:07.657Z,2578.00
2023-02-19T10:29:07.658Z,2233.00
2023-02-19T10:30:07.803Z,2431.00
2023-02-19T10:31:07.650Z,2228.00
2023-02-19T10:32:07.665Z,3086.00
2023-02-19T10:33:07.641Z,3638.00
2023-02-19T10:34:07.652Z,3034.00
2023-02-19T10:35:07.607Z,3351.00
2023-02-19T10:36:07.592Z,3042.00
2023-02-19T10:37:07.597Z,2918.00
2023-02-19T10:38:07.564Z,3551.00
2023-02-19T10:39:07.565Z,3632.00
2023-02-19T10:40:07.536Z,4370.00
2023-02-19T10:41:07.713Z,4695.00
2023-02-19T10:42:07.499Z,3979.00
2023-02-19T10:43:07.496Z,3142.00
2023-02-19T10:44:07.514Z,2799.00
2023-02-19T10:45:07.597Z,2846.00
2023-02-19T10:46:07.513Z,2716.00
2023-02-19T10:47:07.481Z,2727.00
2023-02-19T10:48:07.467Z,2631.00
2023-02-19T10:49:07.571Z,2173.00
2023-02-19T10:50:07.438Z,2568.00
2023-02-19T10:51:07.470Z,2417.00
2023-02-19T10:52:07.394Z,2615.00
2023-02-19T10:53:07.390Z,3785.00
2023-02-19T10:54:07.392Z,3811.00
2023-02-19T10:55:07.366Z,3435.00
2023-02-19T10:56:07.409Z,3604.00
2023-02-19T10:57:07.737Z,2465.00
2023-02-19T10:58:07.408Z,1738.00
2023-02-19T10:59:07.448Z,3107.00
2023-02-19T11:00:07.322Z,4207.00
2023-02-19T11:01:07.346Z,3691.00
2023-02-19T11:02:07.291Z,2604.00
2023-02-19T11:03:07.370Z,1926.00
2023-02-19T11:04:07.461Z,1011.00
2023-02-19T11:05:07.269Z,2787.00
2023-02-19T11:06:07.482Z,4346.00
2023-02-19T11:07:07.231Z,4259.00
2023-02-19T11:08:07.354Z,5358.00
2023-02-19T11:09:07.203Z,6172.00
2023-02-19T11:10:07.278Z,5695.00
2023-02-19T11:11:07.258Z,3461.00
2023-02-19T11:12:09.187Z,2962.00
2023-02-19T11:13:07.164Z,5130.00
2023-02-19T11:14:07.162Z,7741.00
2023-02-19T11:15:07.228Z,7873.00
2023-02-19T11:16:07.186Z,7887.00
2023-02-19T11:17:07.146Z,7889.00
2023-02-19T11:18:07.129Z,7994.00
2023-02-19T11:19:07.094Z,6131.00
2023-02-19T11:20:07.105Z,5630.00
2023-02-19T11:21:07.123Z,6718.00
2023-02-19T11:22:07.063Z,4922.00
2023-02-19T11:23:07.049Z,3127.00
2023-02-19T11:24:07.066Z,3812.00
2023-02-19T11:25:07.074Z,3895.00
2023-02-19T11:26:07.168Z,4819.00
2023-02-19T11:27:07.046Z,5870.00
2023-02-19T11:28:07.219Z,6796.00
2023-02-19T11:29:07.436Z,11825.00
2023-02-19T11:30:07.107Z,13578.00
2023-02-19T11:31:07.078Z,12675.00
2023-02-19T11:32:07.302Z,8946.00
2023-02-19T11:33:07.002Z,5641.00
2023-02-19T11:34:06.966Z,6489.00
2023-02-19T11:35:07.046Z,8148.00
2023-02-19T11:36:06.962Z,7099.00
2023-02-19T11:37:06.924Z,10073.00
2023-02-19T11:38:06.925Z,12205.00
2023-02-19T11:39:07.210Z,9837.00
2023-02-19T11:40:06.874Z,8992.00
2023-02-19T11:41:07.173Z,9353.00
2023-02-19T11:42:06.891Z,6680.00
2023-02-19T11:43:06.884Z,6038.00
2023-02-19T11:44:06.922Z,8141.00
2023-02-19T11:45:06.880Z,10027.00
2023-02-19T11:46:06.884Z,4561.00
2023-02-19T11:47:06.789Z,6831.00
2023-02-19T11:48:06.793Z,10957.00
2023-02-19T11:49:06.784Z,6545.00
2023-02-19T11:50:06.919Z,6693.00
2023-02-19T11:51:06.862Z,6348.00
2023-02-19T11:52:06.745Z,6012.00
2023-02-19T11:53:06.747Z,4730.00
2023-02-19T11:54:06.938Z,3990.00
2023-02-19T11:55:06.768Z,4900.00
2023-02-19T11:56:06.729Z,5460.00
2023-02-19T11:57:06.890Z,7908.00
2023-02-19T11:58:06.688Z,9228.00
2023-02-19T11:59:06.707Z,6092.00
2023-02-19T12:00:06.646Z,7583.00
2023-02-19T12:01:06.697Z,11185.00
2023-02-19T12:02:06.767Z,7784.00
2023-02-19T12:03:06.776Z,11342.00
2023-02-19T12:04:06.624Z,20161.00
2023-02-19T12:05:07.339Z,11798.00
2023-02-19T12:06:06.605Z,12266.00
2023-02-19T12:07:06.604Z,10136.00
2023-02-19T12:08:06.609Z,4230.00
2023-02-19T12:09:06.633Z,14972.00
2023-02-19T12:10:06.558Z,11981.00
2023-02-19T12:11:06.560Z,15148.00
2023-02-19T12:12:06.626Z,3949.00
2023-02-19T12:13:06.539Z,5340.00
2023-02-19T12:14:06.500Z,31420.00
2023-02-19T12:15:06.500Z,13553.00
2023-02-19T12:16:06.648Z,25395.00
2023-02-19T12:17:06.492Z,18378.00
2023-02-19T12:18:06.665Z,6435.00
2023-02-19T12:19:06.504Z,5935.00
2023-02-19T12:20:06.435Z,7444.00
2023-02-19T12:21:06.487Z,6058.00
2023-02-19T12:22:06.651Z,4152.00
2023-02-19T12:23:06.510Z,19414.00
2023-02-19T12:24:06.464Z,10993.00
2023-02-19T12:25:06.825Z,10216.00
2023-02-19T12:26:06.645Z,8939.00
2023-02-19T12:27:06.420Z,6588.00
2023-02-19T12:28:06.452Z,5688.00
2023-02-19T12:29:06.422Z,6427.00
2023-02-19T12:30:06.382Z,4588.00
2023-02-19T12:31:06.455Z,5179.00
2023-02-19T12:32:06.489Z,7232.00
2023-02-19T12:33:06.353Z,12568.00
2023-02-19T12:34:06.367Z,14204.00
2023-02-19T12:35:06.294Z,10807.00
2023-02-19T12:36:06.406Z,10324.00
2023-02-19T12:37:06.333Z,5333.00
2023-02-19T12:38:06.314Z,5853.00
2023-02-19T12:39:06.333Z,8781.00
2023-02-19T12:40:06.310Z,7253.00
2023-02-19T12:41:06.299Z,8016.00
2023-02-19T12:42:06.269Z,8403.00